sensor_id;sensor_type;location;lat;lon;timestamp;P1;durP1;ratioP1;P2;durP2;ratioP2
79792;SDS011;69279;49.072;17.462;2023-07-13T00:00:17;7.78;;;3.78;;
79792;SDS011;69279;49.072;17.462;2023-07-13T00:02:42;6.13;;;3.17;;
79792;SDS011;69279;49.072;17.462;2023-07-13T00:05:08;4.53;;;3.33;;
79792;SDS011;69279;49.072;17.462;2023-07-13T00:07:34;6.05;;;3.10;;
79792;SDS011;69279;49.072;17.462;2023-07-13T00:10:00;4.82;;;3.53;;
79792;SDS011;69279;49.072;17.462;2023-07-13T00:12:31;5.57;;;3.42;;
79792;SDS011;69279;49.072;17.462;2023-07-13T00:14:59;4.95;;;3.50;;
79792;SDS011;69279;49.072;17.462;2023-07-13T00:17:25;5.30;;;3.65;;
79792;SDS011;69279;49.072;17.462;2023-07-13T00:19:51;5.32;;;3.53;;
79792;SDS011;69279;49.072;17.462;2023-07-13T00:22:17;4.35;;;2.90;;
79792;SDS011;69279;49.072;17.462;2023-07-13T00:24:43;5.15;;;3.20;;
79792;SDS011;69279;49.072;17.462;2023-07-13T00:27:09;4.95;;;3.00;;
79792;SDS011;69279;49.072;17.462;2023-07-13T00:29:35;6.47;;;3.13;;
79792;SDS011;69279;49.072;17.462;2023-07-13T00:32:02;4.60;;;3.00;;
79792;SDS011;69279;49.072;17.462;2023-07-13T00:34:31;5.38;;;3.08;;
79792;SDS011;69279;49.072;17.462;2023-07-13T00:36:56;3.72;;;2.80;;
79792;SDS011;69279;49.072;17.462;2023-07-13T00:39:22;4.90;;;2.95;;
79792;SDS011;69279;49.072;17.462;2023-07-13T00:41:47;4.65;;;2.90;;
79792;SDS011;69279;49.072;17.462;2023-07-13T00:44:13;5.35;;;2.95;;
79792;SDS011;69279;49.072;17.462;2023-07-13T00:46:40;4.82;;;3.00;;
79792;SDS011;69279;49.072;17.462;2023-07-13T00:49:06;5.45;;;2.55;;
79792;SDS011;69279;49.072;17.462;2023-07-13T00:51:38;4.72;;;2.47;;
79792;SDS011;69279;49.072;17.462;2023-07-13T00:54:07;4.22;;;2.60;;
79792;SDS011;69279;49.072;17.462;2023-07-13T00:56:35;3.30;;;2.42;;
79792;SDS011;69279;49.072;17.462;2023-07-13T00:59:02;4.10;;;2.40;;
79792;SDS011;69279;49.072;17.462;2023-07-13T01:01:29;4.15;;;2.20;;
79792;SDS011;69279;49.072;17.462;2023-07-13T01:03:55;4.35;;;2.85;;
79792;SDS011;69279;49.072;17.462;2023-07-13T01:06:22;6.60;;;2.85;;
79792;SDS011;69279;49.072;17.462;2023-07-13T01:08:47;3.80;;;2.58;;
79792;SDS011;69279;49.072;17.462;2023-07-13T01:11:13;4.38;;;2.47;;
79792;SDS011;69279;49.072;17.462;2023-07-13T01:13:43;4.68;;;2.33;;
79792;SDS011;69279;49.072;17.462;2023-07-13T01:16:14;3.33;;;2.20;;
79792;SDS011;69279;49.072;17.462;2023-07-13T01:18:42;4.53;;;2.45;;
79792;SDS011;69279;49.072;17.462;2023-07-13T01:21:07;6.55;;;2.50;;
79792;SDS011;69279;49.072;17.462;2023-07-13T01:23:33;3.70;;;2.67;;
79792;SDS011;69279;49.072;17.462;2023-07-13T01:25:59;7.00;;;2.55;;
79792;SDS011;69279;49.072;17.462;2023-07-13T01:28:25;3.58;;;2.60;;
79792;SDS011;69279;49.072;17.462;2023-07-13T01:30:53;4.03;;;2.20;;
79792;SDS011;69279;49.072;17.462;2023-07-13T01:33:20;5.60;;;2.55;;
79792;SDS011;69279;49.072;17.462;2023-07-13T01:35:46;3.42;;;2.17;;
79792;SDS011;69279;49.072;17.462;2023-07-13T01:38:13;4.45;;;2.25;;
79792;SDS011;69279;49.072;17.462;2023-07-13T01:40:39;4.13;;;2.40;;
79792;SDS011;69279;49.072;17.462;2023-07-13T01:43:05;4.65;;;2.50;;
79792;SDS011;69279;49.072;17.462;2023-07-13T01:45:30;2.92;;;2.20;;
79792;SDS011;69279;49.072;17.462;2023-07-13T01:47:55;4.28;;;2.30;;
79792;SDS011;69279;49.072;17.462;2023-07-13T01:50:21;4.13;;;2.17;;
79792;SDS011;69279;49.072;17.462;2023-07-13T01:52:46;3.17;;;2.00;;
79792;SDS011;69279;49.072;17.462;2023-07-13T01:55:12;3.58;;;2.30;;
79792;SDS011;69279;49.072;17.462;2023-07-13T01:57:38;3.05;;;2.22;;
79792;SDS011;69279;49.072;17.462;2023-07-13T02:00:04;3.25;;;2.13;;
79792;SDS011;69279;49.072;17.462;2023-07-13T02:02:31;3.15;;;2.13;;
79792;SDS011;69279;49.072;17.462;2023-07-13T02:04:56;4.32;;;2.38;;
79792;SDS011;69279;49.072;17.462;2023-07-13T02:07:21;4.35;;;2.17;;
79792;SDS011;69279;49.072;17.462;2023-07-13T02:09:47;3.97;;;2.33;;
79792;SDS011;69279;49.072;17.462;2023-07-13T02:12:12;3.22;;;2.17;;
79792;SDS011;69279;49.072;17.462;2023-07-13T02:14:38;4.07;;;2.35;;
79792;SDS011;69279;49.072;17.462;2023-07-13T02:17:03;3.88;;;2.10;;
79792;SDS011;69279;49.072;17.462;2023-07-13T02:19:29;3.53;;;2.60;;
79792;SDS011;69279;49.072;17.462;2023-07-13T02:21:55;4.20;;;2.58;;
79792;SDS011;69279;49.072;17.462;2023-07-13T02:24:20;2.78;;;1.98;;
79792;SDS011;69279;49.072;17.462;2023-07-13T02:26:46;5.32;;;3.13;;
79792;SDS011;69279;49.072;17.462;2023-07-13T02:29:11;3.08;;;2.08;;
79792;SDS011;69279;49.072;17.462;2023-07-13T02:31:37;4.43;;;2.42;;
79792;SDS011;69279;49.072;17.462;2023-07-13T02:34:02;2.72;;;2.10;;
79792;SDS011;69279;49.072;17.462;2023-07-13T02:36:29;4.28;;;2.33;;
79792;SDS011;69279;49.072;17.462;2023-07-13T02:38:54;4.55;;;2.15;;
79792;SDS011;69279;49.072;17.462;2023-07-13T02:41:20;3.90;;;2.10;;
79792;SDS011;69279;49.072;17.462;2023-07-13T02:43:45;3.97;;;2.10;;
79792;SDS011;69279;49.072;17.462;2023-07-13T02:46:11;3.35;;;2.13;;
79792;SDS011;69279;49.072;17.462;2023-07-13T02:48:37;2.50;;;2.08;;
79792;SDS011;69279;49.072;17.462;2023-07-13T02:51:04;4.18;;;2.20;;
79792;SDS011;69279;49.072;17.462;2023-07-13T02:53:30;3.53;;;2.22;;
79792;SDS011;69279;49.072;17.462;2023-07-13T02:55:56;4.18;;;2.20;;
79792;SDS011;69279;49.072;17.462;2023-07-13T02:58:22;3.42;;;2.42;;
79792;SDS011;69279;49.072;17.462;2023-07-13T03:00:49;4.07;;;2.33;;
79792;SDS011;69279;49.072;17.462;2023-07-13T03:03:17;2.72;;;2.13;;
79792;SDS011;69279;49.072;17.462;2023-07-13T03:05:43;4.10;;;2.50;;
79792;SDS011;69279;49.072;17.462;2023-07-13T03:08:10;3.42;;;2.08;;
79792;SDS011;69279;49.072;17.462;2023-07-13T03:10:37;4.18;;;2.35;;
79792;SDS011;69279;49.072;17.462;2023-07-13T03:13:05;6.45;;;2.58;;
79792;SDS011;69279;49.072;17.462;2023-07-13T03:15:30;3.47;;;2.20;;
79792;SDS011;69279;49.072;17.462;2023-07-13T03:17:56;4.05;;;2.63;;
79792;SDS011;69279;49.072;17.462;2023-07-13T03:20:21;3.85;;;2.10;;
79792;SDS011;69279;49.072;17.462;2023-07-13T03:22:46;2.70;;;2.05;;
79792;SDS011;69279;49.072;17.462;2023-07-13T03:25:13;2.67;;;1.95;;
79792;SDS011;69279;49.072;17.462;2023-07-13T03:27:38;4.82;;;2.30;;
79792;SDS011;69279;49.072;17.462;2023-07-13T03:30:04;4.50;;;1.92;;
79792;SDS011;69279;49.072;17.462;2023-07-13T03:32:30;3.55;;;2.00;;
79792;SDS011;69279;49.072;17.462;2023-07-13T03:34:55;4.70;;;2.00;;
79792;SDS011;69279;49.072;17.462;2023-07-13T03:37:21;3.88;;;2.15;;
79792;SDS011;69279;49.072;17.462;2023-07-13T03:39:46;3.63;;;1.98;;
79792;SDS011;69279;49.072;17.462;2023-07-13T03:42:13;4.18;;;2.50;;
79792;SDS011;69279;49.072;17.462;2023-07-13T03:44:39;4.00;;;1.98;;
79792;SDS011;69279;49.072;17.462;2023-07-13T03:47:06;4.00;;;2.10;;
79792;SDS011;69279;49.072;17.462;2023-07-13T03:49:33;3.00;;;1.85;;
79792;SDS011;69279;49.072;17.462;2023-07-13T03:51:59;3.13;;;2.10;;
79792;SDS011;69279;49.072;17.462;2023-07-13T03:54:25;3.53;;;2.08;;
79792;SDS011;69279;49.072;17.462;2023-07-13T03:56:50;3.80;;;2.22;;
79792;SDS011;69279;49.072;17.462;2023-07-13T03:59:15;2.75;;;2.25;;
79792;SDS011;69279;49.072;17.462;2023-07-13T04:01:41;3.50;;;2.60;;
79792;SDS011;69279;49.072;17.462;2023-07-13T04:04:06;4.75;;;1.95;;
79792;SDS011;69279;49.072;17.462;2023-07-13T04:06:32;4.55;;;2.30;;
79792;SDS011;69279;49.072;17.462;2023-07-13T04:08:58;4.97;;;2.17;;
79792;SDS011;69279;49.072;17.462;2023-07-13T04:11:26;3.33;;;2.10;;
79792;SDS011;69279;49.072;17.462;2023-07-13T04:13:53;2.20;;;1.70;;
79792;SDS011;69279;49.072;17.462;2023-07-13T04:16:20;3.30;;;2.10;;
79792;SDS011;69279;49.072;17.462;2023-07-13T04:18:46;2.83;;;2.10;;
79792;SDS011;69279;49.072;17.462;2023-07-13T04:21:12;3.78;;;2.10;;
79792;SDS011;69279;49.072;17.462;2023-07-13T04:23:38;2.95;;;2.13;;
79792;SDS011;69279;49.072;17.462;2023-07-13T04:26:04;4.25;;;2.10;;
79792;SDS011;69279;49.072;17.462;2023-07-13T04:28:30;3.72;;;2.17;;
79792;SDS011;69279;49.072;17.462;2023-07-13T04:30:55;3.05;;;2.25;;
79792;SDS011;69279;49.072;17.462;2023-07-13T04:33:21;3.17;;;1.92;;
79792;SDS011;69279;49.072;17.462;2023-07-13T04:35:48;3.53;;;2.33;;
79792;SDS011;69279;49.072;17.462;2023-07-13T04:38:15;2.70;;;1.98;;
79792;SDS011;69279;49.072;17.462;2023-07-13T04:40:42;3.13;;;2.05;;
79792;SDS011;69279;49.072;17.462;2023-07-13T04:43:10;2.45;;;2.13;;
79792;SDS011;69279;49.072;17.462;2023-07-13T04:45:37;2.35;;;1.92;;
79792;SDS011;69279;49.072;17.462;2023-07-13T04:48:02;4.68;;;2.15;;
79792;SDS011;69279;49.072;17.462;2023-07-13T04:50:28;3.38;;;1.92;;
79792;SDS011;69279;49.072;17.462;2023-07-13T04:52:54;5.38;;;2.17;;
79792;SDS011;69279;49.072;17.462;2023-07-13T04:55:19;11.15;;;2.40;;
79792;SDS011;69279;49.072;17.462;2023-07-13T04:57:45;3.83;;;2.30;;
79792;SDS011;69279;49.072;17.462;2023-07-13T05:00:11;4.50;;;2.15;;
79792;SDS011;69279;49.072;17.462;2023-07-13T05:02:37;3.78;;;2.13;;
79792;SDS011;69279;49.072;17.462;2023-07-13T05:05:04;4.00;;;2.20;;
79792;SDS011;69279;49.072;17.462;2023-07-13T05:07:30;3.05;;;2.20;;
79792;SDS011;69279;49.072;17.462;2023-07-13T05:09:55;3.40;;;2.13;;
79792;SDS011;69279;49.072;17.462;2023-07-13T05:12:21;3.15;;;2.05;;
79792;SDS011;69279;49.072;17.462;2023-07-13T05:14:46;3.58;;;2.10;;
79792;SDS011;69279;49.072;17.462;2023-07-13T05:17:13;4.38;;;2.22;;
79792;SDS011;69279;49.072;17.462;2023-07-13T05:19:39;3.10;;;2.13;;
79792;SDS011;69279;49.072;17.462;2023-07-13T05:22:04;2.35;;;2.05;;
79792;SDS011;69279;49.072;17.462;2023-07-13T05:24:30;3.75;;;1.83;;
79792;SDS011;69279;49.072;17.462;2023-07-13T05:26:55;3.45;;;2.30;;
79792;SDS011;69279;49.072;17.462;2023-07-13T05:29:21;4.40;;;2.05;;
79792;SDS011;69279;49.072;17.462;2023-07-13T05:31:50;3.30;;;2.05;;
79792;SDS011;69279;49.072;17.462;2023-07-13T05:34:15;2.85;;;1.90;;
79792;SDS011;69279;49.072;17.462;2023-07-13T05:36:41;3.08;;;2.03;;
79792;SDS011;69279;49.072;17.462;2023-07-13T05:39:07;2.97;;;2.15;;
79792;SDS011;69279;49.072;17.462;2023-07-13T05:41:32;2.97;;;2.17;;
79792;SDS011;69279;49.072;17.462;2023-07-13T05:43:58;3.75;;;1.90;;
79792;SDS011;69279;49.072;17.462;2023-07-13T05:46:25;3.60;;;2.10;;
79792;SDS011;69279;49.072;17.462;2023-07-13T05:48:51;3.42;;;2.10;;
79792;SDS011;69279;49.072;17.462;2023-07-13T05:51:16;4.15;;;2.10;;
79792;SDS011;69279;49.072;17.462;2023-07-13T05:53:42;3.70;;;2.63;;
79792;SDS011;69279;49.072;17.462;2023-07-13T05:56:07;4.25;;;2.35;;
79792;SDS011;69279;49.072;17.462;2023-07-13T05:58:32;5.35;;;2.35;;
79792;SDS011;69279;49.072;17.462;2023-07-13T06:00:59;6.13;;;2.88;;
79792;SDS011;69279;49.072;17.462;2023-07-13T06:03:35;3.83;;;2.25;;
79792;SDS011;69279;49.072;17.462;2023-07-13T06:06:06;5.15;;;2.45;;
79792;SDS011;69279;49.072;17.462;2023-07-13T06:08:33;3.97;;;2.15;;
79792;SDS011;69279;49.072;17.462;2023-07-13T06:11:18;3.72;;;2.40;;
79792;SDS011;69279;49.072;17.462;2023-07-13T06:13:45;3.47;;;2.45;;
79792;SDS011;69279;49.072;17.462;2023-07-13T06:16:11;4.43;;;2.70;;
79792;SDS011;69279;49.072;17.462;2023-07-13T06:18:36;3.80;;;2.35;;
79792;SDS011;69279;49.072;17.462;2023-07-13T06:21:06;4.53;;;2.78;;
79792;SDS011;69279;49.072;17.462;2023-07-13T06:23:36;3.60;;;2.58;;
79792;SDS011;69279;49.072;17.462;2023-07-13T06:26:02;5.10;;;2.58;;
79792;SDS011;69279;49.072;17.462;2023-07-13T06:28:28;4.25;;;2.50;;
79792;SDS011;69279;49.072;17.462;2023-07-13T06:30:55;3.05;;;2.08;;
79792;SDS011;69279;49.072;17.462;2023-07-13T06:33:20;4.70;;;2.70;;
79792;SDS011;69279;49.072;17.462;2023-07-13T06:35:46;5.07;;;2.72;;
79792;SDS011;69279;49.072;17.462;2023-07-13T06:38:11;4.10;;;2.88;;
79792;SDS011;69279;49.072;17.462;2023-07-13T06:40:36;5.43;;;2.80;;
79792;SDS011;69279;49.072;17.462;2023-07-13T06:43:02;5.38;;;3.65;;
79792;SDS011;69279;49.072;17.462;2023-07-13T06:45:27;3.55;;;2.42;;
79792;SDS011;69279;49.072;17.462;2023-07-13T06:47:53;3.47;;;2.72;;
79792;SDS011;69279;49.072;17.462;2023-07-13T06:50:18;4.68;;;3.10;;
79792;SDS011;69279;49.072;17.462;2023-07-13T06:52:44;5.07;;;2.95;;
79792;SDS011;69279;49.072;17.462;2023-07-13T06:55:09;5.60;;;3.13;;
79792;SDS011;69279;49.072;17.462;2023-07-13T06:57:34;4.72;;;2.95;;
79792;SDS011;69279;49.072;17.462;2023-07-13T07:00:00;6.00;;;3.20;;
79792;SDS011;69279;49.072;17.462;2023-07-13T07:02:25;5.43;;;3.15;;
79792;SDS011;69279;49.072;17.462;2023-07-13T07:04:51;4.95;;;3.10;;
79792;SDS011;69279;49.072;17.462;2023-07-13T07:07:16;4.57;;;3.30;;
79792;SDS011;69279;49.072;17.462;2023-07-13T07:09:42;4.57;;;3.60;;
79792;SDS011;69279;49.072;17.462;2023-07-13T07:12:07;5.47;;;3.08;;
79792;SDS011;69279;49.072;17.462;2023-07-13T07:14:33;5.53;;;3.33;;
79792;SDS011;69279;49.072;17.462;2023-07-13T07:16:59;5.60;;;3.53;;
79792;SDS011;69279;49.072;17.462;2023-07-13T07:19:25;5.00;;;2.97;;
79792;SDS011;69279;49.072;17.462;2023-07-13T07:21:51;5.53;;;3.13;;
79792;SDS011;69279;49.072;17.462;2023-07-13T07:24:16;6.85;;;3.28;;
79792;SDS011;69279;49.072;17.462;2023-07-13T07:26:42;4.78;;;3.75;;
79792;SDS011;69279;49.072;17.462;2023-07-13T07:29:07;6.28;;;3.78;;
79792;SDS011;69279;49.072;17.462;2023-07-13T07:31:32;4.53;;;2.97;;
79792;SDS011;69279;49.072;17.462;2023-07-13T07:33:58;5.05;;;3.42;;
79792;SDS011;69279;49.072;17.462;2023-07-13T07:36:23;6.35;;;3.67;;
79792;SDS011;69279;49.072;17.462;2023-07-13T07:38:49;6.18;;;4.03;;
79792;SDS011;69279;49.072;17.462;2023-07-13T07:41:14;6.90;;;3.72;;
79792;SDS011;69279;49.072;17.462;2023-07-13T07:43:39;6.53;;;4.65;;
79792;SDS011;69279;49.072;17.462;2023-07-13T07:46:05;6.35;;;3.90;;
79792;SDS011;69279;49.072;17.462;2023-07-13T07:48:31;7.60;;;4.32;;
79792;SDS011;69279;49.072;17.462;2023-07-13T07:50:56;5.38;;;3.92;;
79792;SDS011;69279;49.072;17.462;2023-07-13T07:53:22;9.60;;;5.70;;
79792;SDS011;69279;49.072;17.462;2023-07-13T07:55:47;8.07;;;4.78;;
79792;SDS011;69279;49.072;17.462;2023-07-13T07:58:13;6.85;;;4.30;;
79792;SDS011;69279;49.072;17.462;2023-07-13T08:00:38;7.22;;;4.32;;
79792;SDS011;69279;49.072;17.462;2023-07-13T08:03:04;5.75;;;4.40;;
79792;SDS011;69279;49.072;17.462;2023-07-13T08:05:29;6.18;;;4.65;;
79792;SDS011;69279;49.072;17.462;2023-07-13T08:07:54;5.65;;;4.35;;
79792;SDS011;69279;49.072;17.462;2023-07-13T08:10:20;6.72;;;5.07;;
79792;SDS011;69279;49.072;17.462;2023-07-13T08:12:45;9.85;;;5.25;;
79792;SDS011;69279;49.072;17.462;2023-07-13T08:15:12;7.57;;;5.00;;
79792;SDS011;69279;49.072;17.462;2023-07-13T08:17:39;7.40;;;4.57;;
79792;SDS011;69279;49.072;17.462;2023-07-13T08:20:04;8.10;;;5.30;;
79792;SDS011;69279;49.072;17.462;2023-07-13T08:22:30;7.70;;;5.60;;
79792;SDS011;69279;49.072;17.462;2023-07-13T08:24:55;8.65;;;5.18;;
79792;SDS011;69279;49.072;17.462;2023-07-13T08:27:21;7.07;;;5.70;;
79792;SDS011;69279;49.072;17.462;2023-07-13T08:29:48;8.77;;;5.93;;
79792;SDS011;69279;49.072;17.462;2023-07-13T08:32:13;8.90;;;6.25;;
79792;SDS011;69279;49.072;17.462;2023-07-13T08:34:39;9.90;;;5.53;;
79792;SDS011;69279;49.072;17.462;2023-07-13T08:37:05;10.27;;;6.43;;
79792;SDS011;69279;49.072;17.462;2023-07-13T08:39:31;8.50;;;6.47;;
79792;SDS011;69279;49.072;17.462;2023-07-13T08:42:11;9.07;;;6.70;;
79792;SDS011;69279;49.072;17.462;2023-07-13T08:47:46;10.13;;;6.30;;
79792;SDS011;69279;49.072;17.462;2023-07-13T08:50:17;9.45;;;6.20;;
79792;SDS011;69279;49.072;17.462;2023-07-13T08:52:45;7.88;;;6.40;;
79792;SDS011;69279;49.072;17.462;2023-07-13T08:55:13;10.60;;;6.25;;
79792;SDS011;69279;49.072;17.462;2023-07-13T08:57:41;9.18;;;6.15;;
79792;SDS011;69279;49.072;17.462;2023-07-13T09:00:09;9.45;;;5.68;;
79792;SDS011;69279;49.072;17.462;2023-07-13T09:02:45;9.07;;;6.28;;
79792;SDS011;69279;49.072;17.462;2023-07-13T09:05:16;9.50;;;6.55;;
79792;SDS011;69279;49.072;17.462;2023-07-13T09:10:31;10.25;;;6.50;;
79792;SDS011;69279;49.072;17.462;2023-07-13T09:15:31;9.05;;;7.22;;
79792;SDS011;69279;49.072;17.462;2023-07-13T09:23:21;7.53;;;5.70;;
79792;SDS011;69279;49.072;17.462;2023-07-13T09:25:48;8.20;;;5.57;;
79792;SDS011;69279;49.072;17.462;2023-07-13T09:28:22;8.43;;;6.00;;
79792;SDS011;69279;49.072;17.462;2023-07-13T09:33:43;6.65;;;5.10;;
79792;SDS011;69279;49.072;17.462;2023-07-13T09:36:27;6.65;;;5.05;;
79792;SDS011;69279;49.072;17.462;2023-07-13T09:39:07;7.05;;;4.72;;
79792;SDS011;69279;49.072;17.462;2023-07-13T09:41:53;6.80;;;5.40;;
79792;SDS011;69279;49.072;17.462;2023-07-13T09:44:30;5.95;;;5.35;;
79792;SDS011;69279;49.072;17.462;2023-07-13T09:46:59;6.63;;;5.90;;
79792;SDS011;69279;49.072;17.462;2023-07-13T09:49:25;7.43;;;6.25;;
79792;SDS011;69279;49.072;17.462;2023-07-13T09:51:57;7.10;;;5.88;;
79792;SDS011;69279;49.072;17.462;2023-07-13T09:54:28;10.20;;;6.68;;
79792;SDS011;69279;49.072;17.462;2023-07-13T09:57:00;7.30;;;6.38;;
79792;SDS011;69279;49.072;17.462;2023-07-13T09:59:30;8.10;;;6.40;;
79792;SDS011;69279;49.072;17.462;2023-07-13T10:01:58;8.07;;;7.18;;
79792;SDS011;69279;49.072;17.462;2023-07-13T10:04:42;8.13;;;6.60;;
79792;SDS011;69279;49.072;17.462;2023-07-13T10:07:11;6.90;;;6.13;;
79792;SDS011;69279;49.072;17.462;2023-07-13T10:09:39;9.10;;;6.30;;
79792;SDS011;69279;49.072;17.462;2023-07-13T10:12:12;7.20;;;5.93;;
79792;SDS011;69279;49.072;17.462;2023-07-13T10:14:39;8.70;;;6.68;;
79792;SDS011;69279;49.072;17.462;2023-07-13T10:17:05;7.43;;;6.20;;
79792;SDS011;69279;49.072;17.462;2023-07-13T10:19:34;7.70;;;6.78;;
79792;SDS011;69279;49.072;17.462;2023-07-13T10:22:01;8.57;;;6.32;;
79792;SDS011;69279;49.072;17.462;2023-07-13T10:24:30;8.20;;;6.43;;
79792;SDS011;69279;49.072;17.462;2023-07-13T10:27:02;8.30;;;6.97;;
79792;SDS011;69279;49.072;17.462;2023-07-13T10:29:37;8.20;;;6.05;;
79792;SDS011;69279;49.072;17.462;2023-07-13T10:32:10;7.88;;;6.40;;
79792;SDS011;69279;49.072;17.462;2023-07-13T10:34:36;7.43;;;6.40;;
79792;SDS011;69279;49.072;17.462;2023-07-13T10:37:02;8.57;;;6.78;;
79792;SDS011;69279;49.072;17.462;2023-07-13T10:39:30;8.27;;;6.15;;
79792;SDS011;69279;49.072;17.462;2023-07-13T10:42:03;7.78;;;6.40;;
79792;SDS011;69279;49.072;17.462;2023-07-13T10:44:32;7.05;;;5.88;;
79792;SDS011;69279;49.072;17.462;2023-07-13T10:46:59;7.68;;;5.90;;
79792;SDS011;69279;49.072;17.462;2023-07-13T10:49:31;8.00;;;5.95;;
79792;SDS011;69279;49.072;17.462;2023-07-13T10:51:57;7.28;;;5.53;;
79792;SDS011;69279;49.072;17.462;2023-07-13T10:57:07;7.65;;;6.20;;
79792;SDS011;69279;49.072;17.462;2023-07-13T10:59:37;8.05;;;6.32;;
79792;SDS011;69279;49.072;17.462;2023-07-13T11:04:33;6.95;;;6.03;;
79792;SDS011;69279;49.072;17.462;2023-07-13T11:07:10;7.90;;;5.10;;
79792;SDS011;69279;49.072;17.462;2023-07-13T11:09:42;8.73;;;5.38;;
79792;SDS011;69279;49.072;17.462;2023-07-13T11:20:08;7.03;;;5.00;;
79792;SDS011;69279;49.072;17.462;2023-07-13T11:22:43;5.75;;;5.15;;
79792;SDS011;69279;49.072;17.462;2023-07-13T11:25:30;6.57;;;5.00;;
79792;SDS011;69279;49.072;17.462;2023-07-13T11:30:32;6.25;;;5.22;;
79792;SDS011;69279;49.072;17.462;2023-07-13T11:36:23;6.65;;;5.47;;
79792;SDS011;69279;49.072;17.462;2023-07-13T11:41:30;7.68;;;5.47;;
79792;SDS011;69279;49.072;17.462;2023-07-13T11:44:07;6.38;;;4.93;;
79792;SDS011;69279;49.072;17.462;2023-07-13T11:46:32;7.70;;;5.50;;
79792;SDS011;69279;49.072;17.462;2023-07-13T11:48:58;6.47;;;5.13;;
79792;SDS011;69279;49.072;17.462;2023-07-13T11:51:25;5.50;;;4.75;;
79792;SDS011;69279;49.072;17.462;2023-07-13T11:53:53;4.82;;;4.32;;
79792;SDS011;69279;49.072;17.462;2023-07-13T11:56:20;8.32;;;5.03;;
79792;SDS011;69279;49.072;17.462;2023-07-13T11:58:48;5.55;;;4.45;;
79792;SDS011;69279;49.072;17.462;2023-07-13T12:01:23;5.40;;;4.40;;
79792;SDS011;69279;49.072;17.462;2023-07-13T12:03:50;5.45;;;4.95;;
79792;SDS011;69279;49.072;17.462;2023-07-13T12:06:28;6.93;;;5.10;;
79792;SDS011;69279;49.072;17.462;2023-07-13T12:08:58;6.97;;;5.18;;
79792;SDS011;69279;49.072;17.462;2023-07-13T12:11:24;4.90;;;3.90;;
79792;SDS011;69279;49.072;17.462;2023-07-13T12:13:50;4.53;;;4.13;;
79792;SDS011;69279;49.072;17.462;2023-07-13T12:16:31;6.30;;;4.28;;
79792;SDS011;69279;49.072;17.462;2023-07-13T12:18:58;6.03;;;4.80;;
79792;SDS011;69279;49.072;17.462;2023-07-13T12:21:32;7.25;;;5.22;;
79792;SDS011;69279;49.072;17.462;2023-07-13T12:23:59;6.05;;;4.93;;
79792;SDS011;69279;49.072;17.462;2023-07-13T12:26:27;7.35;;;5.10;;
79792;SDS011;69279;49.072;17.462;2023-07-13T12:28:54;5.38;;;4.78;;
79792;SDS011;69279;49.072;17.462;2023-07-13T12:33:59;4.40;;;3.90;;
79792;SDS011;69279;49.072;17.462;2023-07-13T12:36:25;5.20;;;3.53;;
79792;SDS011;69279;49.072;17.462;2023-07-13T12:38:52;4.75;;;3.60;;
79792;SDS011;69279;49.072;17.462;2023-07-13T12:41:17;3.92;;;3.38;;
79792;SDS011;69279;49.072;17.462;2023-07-13T12:43:43;4.13;;;3.63;;
79792;SDS011;69279;49.072;17.462;2023-07-13T12:48:44;5.00;;;3.45;;
79792;SDS011;69279;49.072;17.462;2023-07-13T12:51:13;3.90;;;3.55;;
79792;SDS011;69279;49.072;17.462;2023-07-13T12:53:48;4.80;;;3.83;;
79792;SDS011;69279;49.072;17.462;2023-07-13T12:56:20;4.25;;;3.88;;
79792;SDS011;69279;49.072;17.462;2023-07-13T12:58:49;4.10;;;3.47;;
79792;SDS011;69279;49.072;17.462;2023-07-13T13:03:45;5.28;;;3.70;;
79792;SDS011;69279;49.072;17.462;2023-07-13T13:08:45;5.82;;;4.50;;
79792;SDS011;69279;49.072;17.462;2023-07-13T13:11:15;6.22;;;3.83;;
79792;SDS011;69279;49.072;17.462;2023-07-13T13:13:41;5.55;;;4.20;;
79792;SDS011;69279;49.072;17.462;2023-07-13T13:18:50;5.90;;;4.20;;
79792;SDS011;69279;49.072;17.462;2023-07-13T13:21:16;5.55;;;4.45;;
79792;SDS011;69279;49.072;17.462;2023-07-13T13:23:44;5.80;;;4.88;;
79792;SDS011;69279;49.072;17.462;2023-07-13T13:26:12;5.25;;;4.18;;
79792;SDS011;69279;49.072;17.462;2023-07-13T13:28:40;4.80;;;4.13;;
79792;SDS011;69279;49.072;17.462;2023-07-13T13:31:07;5.18;;;4.25;;
79792;SDS011;69279;49.072;17.462;2023-07-13T13:33:37;6.72;;;4.70;;
79792;SDS011;69279;49.072;17.462;2023-07-13T13:36:13;5.95;;;4.50;;
79792;SDS011;69279;49.072;17.462;2023-07-13T13:38:38;5.88;;;4.93;;
79792;SDS011;69279;49.072;17.462;2023-07-13T13:41:04;6.40;;;4.53;;
79792;SDS011;69279;49.072;17.462;2023-07-13T13:43:30;5.85;;;4.60;;
79792;SDS011;69279;49.072;17.462;2023-07-13T13:45:57;5.60;;;4.43;;
79792;SDS011;69279;49.072;17.462;2023-07-13T13:48:31;6.15;;;4.30;;
79792;SDS011;69279;49.072;17.462;2023-07-13T13:50:58;5.95;;;4.53;;
79792;SDS011;69279;49.072;17.462;2023-07-13T13:53:25;5.25;;;4.47;;
79792;SDS011;69279;49.072;17.462;2023-07-13T13:55:50;5.13;;;4.63;;
79792;SDS011;69279;49.072;17.462;2023-07-13T13:58:17;6.72;;;4.45;;
79792;SDS011;69279;49.072;17.462;2023-07-13T14:00:46;5.00;;;4.50;;
79792;SDS011;69279;49.072;17.462;2023-07-13T14:03:16;5.10;;;4.60;;
79792;SDS011;69279;49.072;17.462;2023-07-13T14:05:43;6.93;;;5.38;;
79792;SDS011;69279;49.072;17.462;2023-07-13T14:08:15;5.65;;;5.07;;
79792;SDS011;69279;49.072;17.462;2023-07-13T14:10:42;5.70;;;5.07;;
79792;SDS011;69279;49.072;17.462;2023-07-13T14:13:15;5.75;;;5.18;;
79792;SDS011;69279;49.072;17.462;2023-07-13T14:15:43;5.72;;;5.10;;
79792;SDS011;69279;49.072;17.462;2023-07-13T14:18:09;5.93;;;4.63;;
79792;SDS011;69279;49.072;17.462;2023-07-13T14:20:35;5.93;;;4.80;;
79792;SDS011;69279;49.072;17.462;2023-07-13T14:23:00;6.53;;;4.97;;
79792;SDS011;69279;49.072;17.462;2023-07-13T14:25:27;5.90;;;5.30;;
79792;SDS011;69279;49.072;17.462;2023-07-13T14:27:55;7.28;;;5.05;;
79792;SDS011;69279;49.072;17.462;2023-07-13T14:30:25;6.22;;;4.43;;
79792;SDS011;69279;49.072;17.462;2023-07-13T14:32:50;6.43;;;4.57;;
79792;SDS011;69279;49.072;17.462;2023-07-13T14:35:17;7.80;;;4.90;;
79792;SDS011;69279;49.072;17.462;2023-07-13T14:37:45;5.20;;;4.70;;
79792;SDS011;69279;49.072;17.462;2023-07-13T14:40:15;4.93;;;4.43;;
79792;SDS011;69279;49.072;17.462;2023-07-13T14:42:42;5.63;;;5.10;;
79792;SDS011;69279;49.072;17.462;2023-07-13T14:45:15;6.80;;;4.82;;
79792;SDS011;69279;49.072;17.462;2023-07-13T14:47:42;5.45;;;4.57;;
79792;SDS011;69279;49.072;17.462;2023-07-13T14:52:40;4.85;;;4.38;;
79792;SDS011;69279;49.072;17.462;2023-07-13T14:55:10;5.75;;;5.25;;
79792;SDS011;69279;49.072;17.462;2023-07-13T14:57:37;5.95;;;4.90;;
79792;SDS011;69279;49.072;17.462;2023-07-13T15:00:03;6.47;;;5.15;;
79792;SDS011;69279;49.072;17.462;2023-07-13T15:02:32;5.90;;;5.15;;
79792;SDS011;69279;49.072;17.462;2023-07-13T15:04:59;5.60;;;4.75;;
79792;SDS011;69279;49.072;17.462;2023-07-13T15:07:26;5.07;;;4.55;;
79792;SDS011;69279;49.072;17.462;2023-07-13T15:09:51;5.43;;;4.55;;
79792;SDS011;69279;49.072;17.462;2023-07-13T15:12:17;5.07;;;4.60;;
79792;SDS011;69279;49.072;17.462;2023-07-13T15:14:42;5.53;;;4.45;;
79792;SDS011;69279;49.072;17.462;2023-07-13T15:22:18;5.13;;;4.40;;
79792;SDS011;69279;49.072;17.462;2023-07-13T15:24:44;5.53;;;4.25;;
79792;SDS011;69279;49.072;17.462;2023-07-13T15:27:11;5.05;;;4.50;;
79792;SDS011;69279;49.072;17.462;2023-07-13T15:29:37;5.60;;;5.00;;
79792;SDS011;69279;49.072;17.462;2023-07-13T15:32:02;6.68;;;4.60;;